Time;durP1;ratioP1;P1;durP2;ratioP2;P2;SDS_P1;SDS_P2;PMS_P1;PMS_P2;Temp;Humidity;BMP_temperature;BMP_pressure;BME280_temperature;BME280_humidity;BME280_pressure;Samples;Min_cycle;Max_cycle;Signal;HPM_P1;HPM_P2
2021/03/11 00:00:45;;;;;;;13.10;10.90;;;;;;;7.89;50.52;98513.41;5093696;28;39944;-76
2021/03/11 00:03:15;;;;;;;15.87;11.23;;;;;;;7.89;50.80;98513.41;5091374;28;38987;-80
2021/03/11 00:05:42;;;;;;;13.70;10.07;;;;;;;7.92;50.75;98510.59;5108719;28;42781;-79
2021/03/11 00:08:10;;;;;;;13.87;11.23;;;;;;;7.89;50.82;98503.72;5108420;28;42776;-80
2021/03/11 00:10:38;;;;;;;14.03;11.83;;;;;;;7.91;50.63;98493.09;5093335;28;40214;-77
2021/03/11 00:13:06;;;;;;;13.60;11.13;;;;;;;7.84;51.40;98475.91;5109549;28;42297;-78
2021/03/11 00:15:35;;;;;;;13.97;10.40;;;;;;;7.89;50.79;98495.81;5092725;28;42029;-76
2021/03/11 00:18:03;;;;;;;17.27;11.83;;;;;;;7.91;50.81;98485.19;5109626;28;42208;-76
2021/03/11 00:20:31;;;;;;;14.80;10.93;;;;;;;7.82;51.43;98470.72;5110951;27;39821;-79
2021/03/11 00:22:58;;;;;;;14.90;10.97;;;;;;;7.77;50.83;98462.25;5092574;28;42447;-78
2021/03/11 00:25:28;;;;;;;14.27;11.13;;;;;;;7.92;51.33;98481.59;5109992;28;42599;-76
2021/03/11 00:27:55;;;;;;;17.10;11.30;;;;;;;7.82;51.26;98469.88;5110005;27;42193;-76
2021/03/11 00:30:27;;;;;;;15.17;10.93;;;;;;;7.74;50.91;98462.41;5109767;28;40442;-75
2021/03/11 00:32:55;;;;;;;13.73;11.17;;;;;;;7.93;51.08;98480.66;5109249;28;41452;-76
2021/03/11 00:35:22;;;;;;;15.47;11.57;;;;;;;7.91;50.98;98483.38;5110874;27;43565;-79
2021/03/11 00:37:50;;;;;;;15.63;11.60;;;;;;;7.95;50.93;98476.13;5109829;28;43487;-78
2021/03/11 00:40:19;;;;;;;14.33;10.53;;;;;;;7.91;50.89;98469.38;5109985;28;39954;-79
2021/03/11 00:42:48;;;;;;;14.57;10.90;;;;;;;7.89;50.96;98455.44;5108899;28;41710;-77
2021/03/11 00:45:15;;;;;;;16.53;11.63;;;;;;;7.97;50.86;98461.09;5109743;28;41876;-80
2021/03/11 00:47:43;;;;;;;13.90;10.43;;;;;;;7.91;50.71;98448.28;5109494;28;42881;-80
2021/03/11 00:50:13;;;;;;;14.77;11.23;;;;;;;8.00;51.25;98458.28;5109661;28;39068;-78
2021/03/11 00:52:40;;;;;;;14.37;11.00;;;;;;;8.01;51.04;98470.53;5092111;28;40497;-76
2021/03/11 00:55:10;;;;;;;15.40;11.07;;;;;;;8.01;50.68;98454.72;5109573;28;43293;-80
2021/03/11 00:57:38;;;;;;;13.73;11.83;;;;;;;8.02;50.81;98456.41;5093053;28;41689;-75
2021/03/11 01:00:09;;;;;;;13.73;11.07;;;;;;;8.04;50.85;98459.78;5112580;28;39887;-75
2021/03/11 01:02:50;;;;;;;14.50;11.43;;;;;;;8.06;50.73;98449.16;5111943;28;41639;-77
2021/03/11 01:05:21;;;;;;;15.80;11.00;;;;;;;8.06;50.86;98450.00;5112773;28;42536;-79
2021/03/11 01:07:48;;;;;;;16.97;11.77;;;;;;;8.09;50.87;98448.97;5113758;27;42260;-74
2021/03/11 01:10:16;;;;;;;16.17;12.37;;;;;;;8.05;50.85;98435.09;5113246;28;38942;-79
2021/03/11 01:12:43;;;;;;;17.80;12.53;;;;;;;8.08;50.82;98432.31;5113065;28;41689;-78
2021/03/11 01:15:11;;;;;;;15.80;12.40;;;;;;;7.99;50.86;98419.66;5112805;28;42927;-78
2021/03/11 01:17:39;;;;;;;16.90;10.83;;;;;;;8.12;51.15;98435.63;5112000;28;42810;-78
2021/03/11 01:20:10;;;;;;;15.03;11.53;;;;;;;8.13;50.89;98427.63;5114031;27;40226;-79
2021/03/11 01:22:37;;;;;;;13.47;10.73;;;;;;;8.14;51.25;98433.75;5095269;28;40803;-75
2021/03/11 01:25:06;;;;;;;11.77;9.87;;;;;;;8.16;51.08;98426.59;5095775;28;42988;-76
2021/03/11 01:27:33;;;;;;;14.40;11.63;;;;;;;8.17;50.84;98429.09;5095487;28;41030;-77
2021/03/11 01:30:01;;;;;;;16.03;11.00;;;;;;;8.17;50.90;98422.97;5113927;27;40481;-79
2021/03/11 01:32:30;;;;;;;14.40;11.30;;;;;;;8.13;51.18;98409.16;5113146;27;42367;-79
2021/03/11 01:34:57;;;;;;;15.23;11.77;;;;;;;8.13;51.07;98406.50;5112507;28;42843;-78
2021/03/11 01:37:24;;;;;;;16.03;12.07;;;;;;;8.13;50.76;98406.50;5095572;28;41533;-80
2021/03/11 01:39:51;;;;;;;14.63;11.73;;;;;;;8.15;50.80;98404.63;5112625;28;40782;-78
2021/03/11 01:42:18;;;;;;;15.57;11.50;;;;;;;8.18;50.76;98393.88;5113044;27;41645;-75
2021/03/11 01:44:45;;;;;;;14.17;11.23;;;;;;;8.08;50.18;98376.91;5095367;28;42599;-78
2021/03/11 01:47:12;;;;;;;14.23;11.13;;;;;;;8.23;49.99;98381.28;5113167;27;41906;-76
2021/03/11 01:49:40;;;;;;;16.40;11.47;;;;;;;8.24;50.05;98377.69;5113541;27;40795;-78
2021/03/11 01:52:07;;;;;;;13.03;10.90;;;;;;;8.24;50.01;98361.03;5111846;28;40990;-79
2021/03/11 01:54:36;;;;;;;15.60;11.50;;;;;;;8.23;49.88;98360.19;5113331;27;42496;-76
2021/03/11 01:57:03;;;;;;;13.40;10.83;;;;;;;8.29;49.75;98359.78;5112049;28;42346;-79
2021/03/11 01:59:31;;;;;;;14.03;10.50;;;;;;;8.35;49.72;98352.47;5111873;28;40262;-76
2021/03/11 02:01:58;;;;;;;13.80;11.10;;;;;;;8.35;49.78;98344.56;5111771;28;41722;-77
2021/03/11 02:04:26;;;;;;;15.70;11.30;;;;;;;8.37;49.36;98340.06;5094972;28;42789;-79
2021/03/11 02:06:54;;;;;;;12.27;10.60;;;;;;;8.38;49.60;98325.91;5111627;28;42243;-79
2021/03/11 02:09:21;;;;;;;15.23;11.67;;;;;;;8.44;49.09;98325.53;5112199;27;39903;-79
2021/03/11 02:11:57;;;;;;;14.43;10.97;;;;;;;8.39;49.32;98317.06;5094781;28;40978;-78
2021/03/11 02:14:31;;;;;;;14.10;10.93;;;;;;;8.46;49.52;98319.22;5111847;28;42614;-77
2021/03/11 02:17:02;;;;;;;14.23;10.70;;;;;;;8.50;49.38;98325.16;5074400;28;41483;-78
2021/03/11 02:19:54;;;;;;;14.27;10.87;;;;;;;8.51;49.29;98317.16;5091212;28;39810;-78
2021/03/11 02:22:32;;;;;;;11.50;9.70;;;;;;;8.42;49.39;98301.00;5101796;28;42327;-77
2021/03/11 02:25:07;;;;;;;12.27;10.27;;;;;;;8.50;49.84;98298.75;5095092;28;42990;-76
2021/03/11 02:27:49;;;;;;;14.13;10.33;;;;;;;8.39;50.81;98277.50;5112709;27;42212;-79
2021/03/11 02:30:18;;;;;;;13.13;9.43;;;;;;;8.38;51.63;98271.38;5111614;28;39838;-76
2021/03/11 02:32:46;;;;;;;14.43;10.53;;;;;;;8.27;52.74;98261.47;5111336;28;41569;-77
2021/03/11 02:35:15;;;;;;;12.77;9.83;;;;;;;8.10;53.05;98237.06;5110521;28;43289;-78
2021/03/11 02:37:46;;;;;;;11.60;9.10;;;;;;;8.15;53.45;98241.13;5110163;28;41978;-77
2021/03/11 02:40:16;;;;;;;10.37;8.57;;;;;;;8.15;53.26;98229.72;5109874;28;40737;-79
2021/03/11 02:42:49;;;;;;;11.53;9.37;;;;;;;8.12;53.99;98222.84;5094610;28;40734;-78
2021/03/11 02:45:20;;;;;;;12.13;9.23;;;;;;;8.15;54.02;98221.81;5094417;28;41872;-80
2021/03/11 02:47:47;;;;;;;13.47;9.00;;;;;;;8.21;54.33;98218.78;5092119;28;42306;-78
2021/03/11 02:50:15;;;;;;;14.33;9.33;;;;;;;8.20;54.04;98211.81;5090478;28;39664;-78
2021/03/11 02:52:43;;;;;;;13.13;9.80;;;;;;;8.22;54.46;98216.03;5096531;28;42346;-79
2021/03/11 02:55:12;;;;;;;12.57;10.37;;;;;;;8.23;54.18;98199.28;5111118;28;42434;-79
2021/03/11 02:57:40;;;;;;;11.40;9.33;;;;;;;8.21;54.83;98198.53;5110680;28;43046;-77
2021/03/11 03:00:10;;;;;;;10.90;8.40;;;;;;;8.13;55.19;98206.09;5094354;28;39880;-78
2021/03/11 03:02:41;;;;;;;14.90;10.17;;;;;;;8.06;55.45;98191.56;5093824;28;40888;-77
2021/03/11 03:05:09;;;;;;;10.03;8.43;;;;;;;8.05;55.70;98181.97;5094212;28;41997;-75
2021/03/11 03:07:42;;;;;;;12.57;9.33;;;;;;;8.07;55.99;98172.16;5140526;27;42811;-79
2021/03/11 03:10:11;;;;;;;11.53;10.03;;;;;;;7.94;56.73;98147.53;5092213;28;40037;-75
2021/03/11 03:12:38;;;;;;;12.27;9.87;;;;;;;7.93;57.41;98145.81;5090294;28;40990;-77
2021/03/11 03:15:07;;;;;;;12.13;9.50;;;;;;;7.88;58.10;98142.66;5090645;28;42161;-77
2021/03/11 03:17:35;;;;;;;13.33;9.03;;;;;;;7.87;57.98;98139.16;5104545;28;42975;-79
2021/03/11 03:20:07;;;;;;;10.30;8.87;;;;;;;7.81;58.83;98123.72;5109341;28;40732;-78
2021/03/11 03:22:34;;;;;;;12.47;8.83;;;;;;;7.83;58.40;98118.34;5110157;28;41843;-76
2021/03/11 03:25:02;;;;;;;11.43;8.67;;;;;;;7.83;58.53;98118.34;5110628;28;42489;-77
2021/03/11 03:27:29;;;;;;;9.97;8.17;;;;;;;7.79;58.07;98107.16;5111540;27;42915;-79
2021/03/11 03:29:56;;;;;;;10.37;8.37;;;;;;;7.91;58.22;98116.09;5110455;28;40561;-79
2021/03/11 03:32:23;;;;;;;9.97;7.83;;;;;;;7.94;57.97;98108.81;5109890;28;41501;-76
2021/03/11 03:34:50;;;;;;;8.87;7.73;;;;;;;7.99;58.22;98113.81;5110210;28;43450;-80
2021/03/11 03:37:18;;;;;;;12.67;9.10;;;;;;;8.00;58.25;98104.97;5111627;27;43149;-76
2021/03/11 03:39:46;;;;;;;12.50;9.03;;;;;;;7.97;58.36;98088.50;5111662;27;40002;-77
2021/03/11 03:42:13;;;;;;;11.60;8.73;;;;;;;8.05;58.33;98102.84;5109633;28;40969;-78
2021/03/11 03:44:42;;;;;;;10.87;8.17;;;;;;;8.11;58.48;98081.38;5093689;28;41656;-76
2021/03/11 03:47:12;;;;;;;12.20;8.77;;;;;;;8.14;58.32;98081.19;5091027;28;42281;-78
2021/03/11 03:49:40;;;;;;;10.53;8.60;;;;;;;8.02;58.06;98060.06;5089614;28;40673;-76
2021/03/11 03:52:08;;;;;;;10.97;8.37;;;;;;;8.19;58.60;98078.22;5103585;28;41618;-77
2021/03/11 03:54:40;;;;;;;10.30;8.87;;;;;;;8.13;58.95;98063.69;5110612;28;42147;-76
2021/03/11 03:57:12;;;;;;;12.20;8.67;;;;;;;7.97;59.49;98067.41;5109928;28;42748;-77
2021/03/11 03:59:41;;;;;;;10.50;8.90;;;;;;;7.97;59.79;98078.78;5110440;28;40765;-77
2021/03/11 04:02:12;;;;;;;11.97;9.50;;;;;;;7.91;60.66;98066.03;5110180;28;41998;-77
2021/03/11 04:04:42;;;;;;;12.57;9.33;;;;;;;7.84;60.87;98062.91;5092996;28;43151;-79
2021/03/11 04:07:11;;;;;;;11.43;9.00;;;;;;;7.67;62.06;98036.78;5111199;27;41643;-76
2021/03/11 04:09:40;;;;;;;11.37;9.53;;;;;;;7.51;62.31;98039.56;5093430;28;39229;-76
2021/03/11 04:12:09;;;;;;;14.27;9.00;;;;;;;7.36;62.50;98022.09;5110042;28;40786;-77
2021/03/11 04:14:37;;;;;;;11.97;9.10;;;;;;;7.56;62.23;98053.28;5109047;28;42806;-78
2021/03/11 04:17:06;;;;;;;12.07;9.57;;;;;;;7.49;61.92;98045.88;5109583;28;41402;-76
2021/03/11 04:19:36;;;;;;;10.77;9.07;;;;;;;7.61;61.76;98057.41;5111087;27;41017;-76
2021/03/11 04:22:04;;;;;;;11.30;8.47;;;;;;;7.61;61.50;98063.53;5109280;28;41555;-78
2021/03/11 04:24:32;;;;;;;12.43;9.33;;;;;;;7.52;61.40;98041.25;5109914;28;42708;-75
2021/03/11 04:27:01;;;;;;;12.20;9.77;;;;;;;7.65;61.32;98051.03;5110754;27;43010;-78
2021/03/11 04:29:29;;;;;;;13.57;10.17;;;;;;;7.69;61.12;98055.97;5093114;28;38946;-76
2021/03/11 04:31:57;;;;;;;12.17;9.53;;;;;;;7.72;61.00;98047.88;5110481;27;41835;-78
2021/03/11 04:34:25;;;;;;;14.27;9.93;;;;;;;7.76;61.09;98046.75;5096514;28;42635;-78
2021/03/11 04:36:53;;;;;;;11.20;9.47;;;;;;;7.80;60.13;98047.38;5114438;27;42694;-79
2021/03/11 04:39:21;;;;;;;12.07;10.07;;;;;;;7.82;60.28;98054.25;5113530;28;39522;-77
2021/03/11 04:41:51;;;;;;;10.63;9.40;;;;;;;7.82;59.76;98037.59;5095960;28;41770;-80
2021/03/11 04:44:21;;;;;;;14.70;10.27;;;;;;;7.87;59.75;98046.91;5096367;28;42738;-79
2021/03/11 04:46:49;;;;;;;14.80;9.73;;;;;;;7.86;59.63;98039.09;5113077;28;42696;-77
2021/03/11 04:49:18;;;;;;;12.83;10.20;;;;;;;7.87;59.01;98040.78;5096332;28;38942;-76
2021/03/11 04:51:46;;;;;;;13.17;10.23;;;;;;;7.81;59.26;98020.09;5094317;28;40888;-78
2021/03/11 04:54:14;;;;;;;12.27;10.30;;;;;;;7.98;59.15;98027.75;5093748;28;43591;-76
2021/03/11 04:56:42;;;;;;;11.90;9.73;;;;;;;8.04;58.59;98037.03;5093451;28;43087;-75
2021/03/11 04:59:10;;;;;;;12.07;9.77;;;;;;;8.08;58.88;98043.81;5094041;28;38832;-77
2021/03/11 05:01:41;;;;;;;11.27;9.70;;;;;;;8.13;58.83;98026.75;5111269;28;41224;-76
2021/03/11 05:04:10;;;;;;;12.33;10.17;;;;;;;8.12;58.49;98035.63;5112826;28;43176;-77
2021/03/11 05:06:37;;;;;;;14.57;10.73;;;;;;;8.19;58.26;98042.16;5111944;28;41225;-77
2021/03/11 05:09:04;;;;;;;13.53;10.10;;;;;;;8.22;58.45;98039.34;5112946;28;40826;-76
2021/03/11 05:11:31;;;;;;;14.60;10.20;;;;;;;8.17;58.18;98033.50;5114034;27;41688;-77
2021/03/11 05:13:58;;;;;;;12.40;9.30;;;;;;;8.26;57.92;98046.09;5112742;28;42161;-76
2021/03/11 05:16:25;;;;;;;12.73;9.27;;;;;;;8.31;57.81;98040.50;5113497;27;42228;-76
2021/03/11 05:18:53;;;;;;;13.03;10.30;;;;;;;8.24;57.86;98016.34;5113917;27;39879;-78
2021/03/11 05:21:20;;;;;;;10.97;9.03;;;;;;;8.36;57.92;98032.31;5113801;27;42034;-77
2021/03/11 05:23:49;;;;;;;10.37;8.53;;;;;;;8.40;57.80;98033.81;5091937;28;41842;-78
2021/03/11 05:26:16;;;;;;;9.90;8.37;;;;;;;8.42;58.30;98030.13;5075049;28;41553;-79
2021/03/11 05:28:43;;;;;;;10.97;8.63;;;;;;;8.51;58.22;98026.03;5092274;28;39995;-77
2021/03/11 05:31:10;;;;;;;11.50;8.07;;;;;;;8.52;58.59;98022.44;5100000;28;42502;-79
2021/03/11 05:33:37;;;;;;;11.30;8.67;;;;;;;8.56;58.56;98018.63;5113827;27;43565;-78
2021/03/11 05:36:06;;;;;;;10.87;8.50;;;;;;;8.47;58.67;98000.78;5112470;28;41635;-78
2021/03/11 05:38:33;;;;;;;10.73;8.00;;;;;;;8.65;58.77;98010.13;5112494;28;39788;-77
2021/03/11 05:41:02;;;;;;;9.37;7.37;;;;;;;8.73;58.63;98009.56;5112249;28;40772;-78
2021/03/11 05:43:30;;;;;;;9.77;7.33;;;;;;;8.70;58.73;97994.78;5111361;28;41682;-78
2021/03/11 05:45:57;;;;;;;9.27;7.13;;;;;;;8.77;58.79;98005.78;5095221;28;42159;-80
2021/03/11 05:48:27;;;;;;;11.87;7.67;;;;;;;8.79;59.30;97990.66;5112158;28;39859;-78
2021/03/11 05:50:54;;;;;;;8.83;6.93;;;;;;;8.88;58.89;97992.69;5112158;28;41477;-77
2021/03/11 05:53:23;;;;;;;8.33;6.13;;;;;;;8.84;58.72;97959.53;5111355;28;43490;-77
2021/03/11 05:55:50;;;;;;;10.60;7.10;;;;;;;8.93;59.33;97965.00;5113276;27;42691;-76
2021/03/11 05:58:19;;;;;;;9.00;6.67;;;;;;;8.98;58.62;97970.81;5111383;28;41019;-78
2021/03/11 06:00:46;;;;;;;8.10;6.70;;;;;;;9.09;59.15;97975.34;5111936;28;42365;-77
2021/03/11 06:03:13;;;;;;;9.90;6.33;;;;;;;9.15;58.85;97968.78;5112709;27;43137;-76
2021/03/11 06:05:41;;;;;;;10.23;6.70;;;;;;;9.19;58.65;97954.38;5111998;28;41150;-77
2021/03/11 06:08:08;;;;;;;9.63;7.03;;;;;;;9.26;58.51;97955.66;5111607;28;39980;-76
2021/03/11 06:10:39;;;;;;;10.50;6.87;;;;;;;9.22;58.22;97933.03;5113120;27;41353;-79
2021/03/11 06:13:08;;;;;;;10.70;6.87;;;;;;;9.33;58.47;97941.03;5094928;28;42724;-79
2021/03/11 06:15:37;;;;;;;8.67;6.40;;;;;;;9.38;58.19;97933.63;5111404;27;42326;-76
2021/03/11 06:18:06;;;;;;;8.57;6.30;;;;;;;9.41;57.92;97922.81;5112220;27;39696;-78
2021/03/11 06:20:33;;;;;;;14.87;9.87;;;;;;;9.47;57.65;97922.41;5110870;28;41820;-78
2021/03/11 06:23:01;;;;;;;9.67;7.40;;;;;;;9.46;57.69;97910.13;5094338;28;42516;-76
2021/03/11 06:25:28;;;;;;;11.10;7.03;;;;;;;9.49;57.99;97894.06;5111958;28;41563;-79
2021/03/11 06:27:56;;;;;;;9.47;6.23;;;;;;;9.66;57.82;97898.09;5112850;27;40401;-77
2021/03/11 06:30:35;;;;;;;8.90;6.83;;;;;;;9.70;57.84;97900.41;5110904;28;41698;-79
2021/03/11 06:33:04;;;;;;;7.63;5.67;;;;;;;9.70;57.80;97905.69;5112634;27;42532;-80
2021/03/11 06:35:31;;;;;;;13.33;6.20;;;;;;;9.70;57.75;97903.03;5111374;28;42955;-78
2021/03/11 06:37:58;;;;;;;8.47;5.60;;;;;;;9.80;57.04;97913.78;5111233;28;41186;-80
2021/03/11 06:40:27;;;;;;;6.83;5.73;;;;;;;9.88;56.80;97922.00;5111657;28;41565;-79
2021/03/11 06:43:08;;;;;;;7.57;5.73;;;;;;;9.81;56.87;97904.03;5111982;27;42670;-77
2021/03/11 06:45:35;;;;;;;7.43;6.07;;;;;;;9.98;56.64;97922.16;5089386;28;41414;-79
2021/03/11 06:48:24;;;;;;;9.07;5.90;;;;;;;10.03;56.46;97926.13;5091466;28;40937;-80
2021/03/11 06:50:51;;;;;;;8.13;6.43;;;;;;;10.08;56.28;97923.13;5108143;28;42277;-78
2021/03/11 06:53:19;;;;;;;24.27;18.47;;;;;;;10.07;56.00;97916.16;5093992;28;41729;-80
2021/03/11 06:55:46;;;;;;;9.00;5.97;;;;;;;10.12;56.33;97924.59;5093949;28;41351;-78
2021/03/11 06:58:19;;;;;;;6.67;5.50;;;;;;;10.15;56.08;97908.47;5110552;28;39844;-77
2021/03/11 07:00:47;;;;;;;7.37;5.30;;;;;;;10.19;55.95;97915.25;5094078;28;40529;-79
2021/03/11 07:03:15;;;;;;;7.07;5.23;;;;;;;10.29;55.54;97921.53;5111594;27;42692;-75
2021/03/11 07:05:43;;;;;;;5.93;4.73;;;;;;;10.26;55.58;97916.47;5110514;28;42819;-77
2021/03/11 07:08:14;;;;;;;7.40;5.73;;;;;;;10.19;55.72;97914.41;5115619;27;39930;-76
2021/03/11 07:10:42;;;;;;;11.43;5.53;;;;;;;10.37;55.63;97926.25;5130682;28;41809;-75
2021/03/11 07:13:09;;;;;;;8.20;5.33;;;;;;;10.39;55.54;97929.59;5128568;28;43370;-76
2021/03/11 07:15:38;;;;;;;7.90;5.67;;;;;;;10.39;55.53;97911.94;5113487;28;41125;-76
2021/03/11 07:18:07;;;;;;;7.47;5.27;;;;;;;10.55;55.32;97911.59;5131770;28;40473;-77
2021/03/11 07:20:35;;;;;;;8.10;5.50;;;;;;;10.59;55.13;97933.38;5128690;28;40949;-75
2021/03/11 07:23:09;;;;;;;7.97;5.43;;;;;;;10.60;55.53;97919.19;5118959;28;44317;-77
2021/03/11 07:25:40;;;;;;;7.00;6.00;;;;;;;10.42;55.86;97882.59;5102764;28;20540;-76
2021/03/11 07:28:09;;;;;;;13.80;9.37;;;;;;;10.63;56.22;97881.91;5108258;28;39026;-77
2021/03/11 07:30:52;;;;;;;7.47;5.03;;;;;;;10.64;56.80;97889.69;5103605;28;41210;-75
2021/03/11 07:33:20;;;;;;;5.87;4.67;;;;;;;10.75;56.31;97896.81;5112650;27;43160;-76
2021/03/11 07:35:48;;;;;;;7.83;4.57;;;;;;;10.73;56.43;97893.44;5109340;28;41287;-76
2021/03/11 07:38:17;;;;;;;8.40;4.70;;;;;;;10.71;56.18;97890.06;5093363;28;39816;-80
2021/03/11 07:40:46;;;;;;;5.23;4.73;;;;;;;10.72;56.35;97875.88;5110133;28;40575;-77
2021/03/11 07:43:14;;;;;;;5.83;3.77;;;;;;;10.80;56.47;97889.34;5111194;27;43710;-76
2021/03/11 07:45:42;;;;;;;7.50;4.40;;;;;;;10.89;56.15;97899.19;5108329;28;42342;-77
2021/03/11 07:48:11;;;;;;;5.00;4.20;;;;;;;10.92;55.93;97893.66;5109847;28;40668;-77
2021/03/11 07:50:42;;;;;;;6.13;4.37;;;;;;;10.91;56.08;97865.50;5109712;28;40835;-77
2021/03/11 07:53:10;;;;;;;35.10;26.03;;;;;;;10.96;56.40;97863.34;5109394;28;42466;-77
2021/03/11 07:55:38;;;;;;;8.73;4.60;;;;;;;11.03;56.39;97863.66;5109989;28;41788;-76
2021/03/11 07:58:07;;;;;;;7.30;3.90;;;;;;;11.04;56.51;97854.75;5092604;28;39378;-76
2021/03/11 08:00:35;;;;;;;6.00;4.03;;;;;;;11.03;56.30;97843.31;5088742;28;40890;-77
2021/03/11 08:03:06;;;;;;;5.37;3.83;;;;;;;11.08;56.64;97842.97;5089644;28;41722;-79
2021/03/11 08:05:40;;;;;;;4.90;4.17;;;;;;;11.16;56.59;97873.16;5089343;28;41870;-75
2021/03/11 08:08:16;;;;;;;3.90;3.50;;;;;;;11.17;56.45;97866.06;5109377;28;39798;-76
2021/03/11 08:10:45;;;;;;;9.17;4.43;;;;;;;11.02;56.71;97846.94;5113250;28;41747;-77
2021/03/11 08:13:40;;;;;;;5.93;4.10;;;;;;;11.22;56.56;97852.44;5113357;28;42484;-77
2021/03/11 08:16:23;;;;;;;5.30;4.00;;;;;;;11.22;56.65;97863.06;5040366;28;41503;-77
2021/03/11 08:18:53;;;;;;;4.63;4.03;;;;;;;11.07;56.78;97834.16;5092457;28;39525;-77
2021/03/11 08:21:45;;;;;;;4.37;3.60;;;;;;;11.32;56.61;97863.97;5096020;28;41375;-78
2021/03/11 08:24:41;;;;;;;5.77;3.47;;;;;;;11.38;56.65;97859.00;5113327;28;43345;-77
2021/03/11 08:27:40;;;;;;;4.33;3.93;;;;;;;11.42;56.30;97854.31;5114036;27;42390;-76
2021/03/11 08:30:50;;;;;;;7.07;4.00;;;;;;;11.42;56.58;97841.06;5113094;28;40820;-78
2021/03/11 08:33:48;;;;;;;7.40;3.53;;;;;;;11.51;56.28;97827.88;5095968;28;41004;-77
2021/03/11 08:36:26;;;;;;;5.87;3.63;;;;;;;11.62;55.82;97832.28;5030286;28;41518;-78
2021/03/11 08:38:54;;;;;;;5.83;3.17;;;;;;;11.64;56.17;97832.16;5063050;28;41202;-78
2021/03/11 08:41:35;;;;;;;3.97;3.43;;;;;;;11.80;55.56;97833.44;5092553;28;39577;-79
2021/03/11 08:44:03;;;;;;;4.03;3.30;;;;;;;11.83;55.94;97822.59;5095817;28;41454;-76
2021/03/11 08:46:50;;;;;;;7.13;3.27;;;;;;;11.76;56.31;97813.44;5092310;28;42273;-76
2021/03/11 08:49:42;;;;;;;3.20;2.90;;;;;;;11.96;55.90;97824.22;5098082;28;42268;-78
2021/03/11 08:52:41;;;;;;;11.13;6.73;;;;;;;11.93;56.42;97827.13;5098336;27;39873;-78
2021/03/11 08:55:32;;;;;;;3.40;3.10;;;;;;;11.96;56.65;97832.16;5095277;28;40692;-77
2021/03/11 08:58:01;;;;;;;5.50;3.33;;;;;;;11.97;56.93;97834.69;5095292;28;42730;-77
2021/03/11 09:00:54;;;;;;;5.47;3.10;;;;;;;12.05;57.00;97815.47;5113071;27;42046;-76
2021/03/11 09:03:42;;;;;;;6.40;3.07;;;;;;;11.90;56.88;97799.03;5111334;28;39907;-76
2021/03/11 09:06:11;;;;;;;6.37;2.80;;;;;;;11.99;57.38;97800.09;5113190;27;42244;-77
2021/03/11 09:08:46;;;;;;;4.27;2.63;;;;;;;12.15;57.48;97795.13;5111927;28;42716;-75
2021/03/11 09:11:20;;;;;;;4.50;2.77;;;;;;;12.14;57.78;97788.13;5111541;28;41901;-76
2021/03/11 09:13:49;;;;;;;3.10;2.30;;;;;;;12.34;56.87;97784.63;5111624;28;39515;-81
2021/03/11 09:16:16;;;;;;;5.33;2.57;;;;;;;12.51;57.24;97802.56;5111764;28;41850;-76
2021/03/11 09:18:43;;;;;;;3.67;2.70;;;;;;;12.78;57.15;97803.78;5110335;28;42489;-77
2021/03/11 09:21:10;;;;;;;4.00;2.50;;;;;;;12.84;57.39;97792.63;5094048;28;41172;-77
2021/03/11 09:23:40;;;;;;;5.67;2.60;;;;;;;12.92;56.99;97796.28;5111677;28;40606;-76
2021/03/11 09:26:08;;;;;;;5.50;2.63;;;;;;;12.81;57.03;97751.22;5090300;28;41795;-77
2021/03/11 09:28:37;;;;;;;4.53;2.57;;;;;;;13.23;56.33;97789.06;5092505;28;42758;-77
2021/03/11 09:31:04;;;;;;;5.60;2.40;;;;;;;13.47;55.80;97786.03;5127614;27;42158;-76
2021/03/11 09:33:38;;;;;;;6.60;2.37;;;;;;;13.60;55.03;97801.69;5112916;27;40690;-76
2021/03/11 09:36:15;;;;;;;3.43;2.57;;;;;;;13.63;55.05;97809.38;5094651;28;40730;-76
2021/03/11 09:38:42;;;;;;;2.93;2.40;;;;;;;13.77;54.95;97782.34;5113185;27;43275;-77
2021/03/11 09:41:10;;;;;;;6.87;3.30;;;;;;;13.87;54.27;97777.00;5110958;28;42804;-76
2021/03/11 09:43:39;;;;;;;3.00;2.43;;;;;;;14.15;54.13;97764.63;5112574;27;40656;-77
2021/03/11 09:46:09;;;;;;;4.50;2.47;;;;;;;14.48;53.45;97763.25;5094073;28;40823;-78
2021/03/11 09:48:39;;;;;;;10.97;6.10;;;;;;;14.68;52.55;97754.22;5095170;28;42558;-78
2021/03/11 09:51:08;;;;;;;1.90;1.70;;;;;;;14.66;52.58;97765.00;5145286;27;42664;-77
2021/03/11 09:53:43;;;;;;;4.23;2.10;;;;;;;14.44;53.06;97743.25;5112710;27;39897;-77
2021/03/11 09:56:13;;;;;;;5.10;2.30;;;;;;;14.00;54.27;97740.28;5111035;28;41657;-77
2021/03/11 09:58:48;;;;;;;4.00;2.30;;;;;;;14.01;54.70;97758.78;5090893;28;44171;-77
2021/03/11 10:01:27;;;;;;;2.47;2.20;;;;;;;13.80;55.03;97738.66;5090525;28;42752;-76
2021/03/11 10:03:55;;;;;;;4.00;2.20;;;;;;;13.80;55.17;97760.78;5093415;28;39655;-78
2021/03/11 10:06:23;;;;;;;3.53;1.90;;;;;;;13.53;55.70;97739.41;5112317;27;42545;-77
2021/03/11 10:08:54;;;;;;;2.20;1.77;;;;;;;13.64;55.85;97768.50;5090660;28;42750;-78
2021/03/11 10:11:25;;;;;;;3.37;1.60;;;;;;;13.62;55.82;97762.47;5090339;28;42291;-79
2021/03/11 10:14:00;;;;;;;2.80;1.70;;;;;;;13.62;55.98;97765.13;5075383;28;40943;-77
2021/03/11 10:16:42;;;;;;;1.97;1.77;;;;;;;13.31;57.87;97737.88;5110846;28;41671;-76
2021/03/11 10:19:12;;;;;;;3.93;1.70;;;;;;;13.31;59.25;97740.53;5091633;28;43536;-76
2021/03/11 10:21:51;;;;;;;4.87;1.93;;;;;;;12.75;62.02;97692.47;5090345;28;41947;-77
2021/03/11 10:24:38;;;;;;;2.87;1.50;;;;;;;12.67;65.19;97716.22;5089235;28;39217;-78
2021/03/11 10:27:22;;;;;;;5.43;1.90;;;;;;;12.52;65.80;97723.72;5111549;27;42395;-77
2021/03/11 10:30:02;;;;;;;2.87;1.80;;;;;;;12.27;67.21;97719.75;5093714;28;42016;-78
2021/03/11 10:32:31;;;;;;;2.50;2.10;;;;;;;12.11;67.79;97722.91;5111087;28;42133;-77
2021/03/11 10:35:01;;;;;;;3.00;1.80;;;;;;;12.06;68.51;97729.56;5109782;28;41183;-78
2021/03/11 10:37:30;;;;;;;4.27;1.73;;;;;;;12.05;68.59;97725.25;5111532;27;41673;-76
2021/03/11 10:39:58;;;;;;;1.90;1.80;;;;;;;11.83;69.34;97731.56;5110420;28;43206;-78
2021/03/11 10:42:38;;;;;;;1.97;1.60;;;;;;;11.92;69.92;97728.09;5093671;28;42197;-81
2021/03/11 10:45:11;;;;;;;3.17;1.80;;;;;;;11.87;70.12;97717.88;5093730;28;39239;-77
2021/03/11 10:47:39;;;;;;;4.70;1.80;;;;;;;11.86;70.21;97721.53;5091898;28;41643;-77
2021/03/11 10:50:17;;;;;;;6.50;2.33;;;;;;;11.85;70.54;97711.91;5107028;28;41531;-76
2021/03/11 10:52:48;;;;;;;3.80;2.03;;;;;;;11.85;70.67;97693.31;5110411;28;42606;-78
2021/03/11 10:55:27;;;;;;;1.93;1.83;;;;;;;11.87;71.00;97675.44;5110577;28;38986;-79
2021/03/11 10:57:55;;;;;;;3.77;1.63;;;;;;;11.91;71.46;97696.41;5112341;27;41374;-78
2021/03/11 11:00:25;;;;;;;2.30;1.77;;;;;;;11.84;71.90;97665.13;5092923;28;43043;-77
2021/03/11 11:02:54;;;;;;;2.80;1.70;;;;;;;11.94;70.98;97685.53;5110147;28;42198;-76
2021/03/11 11:05:21;;;;;;;3.90;1.90;;;;;;;12.02;71.16;97693.66;5111345;27;40710;-77
2021/03/11 11:07:49;;;;;;;2.97;1.70;;;;;;;12.08;71.07;97674.56;5093508;28;40733;-77
2021/03/11 11:10:17;;;;;;;2.07;1.60;;;;;;;12.20;70.56;97670.84;5089597;28;42001;-76
2021/03/11 11:12:45;;;;;;;1.63;1.50;;;;;;;12.47;70.09;97697.59;5072907;28;42462;-77
2021/03/11 11:15:13;;;;;;;2.50;1.40;;;;;;;12.52;69.96;97686.56;5103036;28;40707;-78
2021/03/11 11:17:41;;;;;;;1.40;1.30;;;;;;;12.47;69.81;97689.66;5092978;28;40864;-77
2021/03/11 11:20:11;;;;;;;2.97;1.40;;;;;;;12.45;70.08;97685.44;5092418;28;41704;-78
2021/03/11 11:22:38;;;;;;;1.53;1.43;;;;;;;12.50;70.02;97678.72;5109742;28;42146;-77
2021/03/11 11:25:07;;;;;;;1.20;1.10;;;;;;;12.53;69.58;97683.78;5093135;28;38929;-78
2021/03/11 11:27:35;;;;;;;1.20;1.10;;;;;;;12.59;69.43;97646.06;5110745;27;42341;-77
2021/03/11 11:30:05;;;;;;;1.50;1.10;;;;;;;12.86;69.33;97695.00;5109989;28;43283;-76
2021/03/11 11:32:34;;;;;;;1.90;1.27;;;;;;;12.93;68.35;97672.22;5110993;27;43048;-77
2021/03/11 11:35:03;;;;;;;1.63;0.90;;;;;;;13.01;67.71;97645.78;5108990;28;39447;-77
2021/03/11 11:37:32;;;;;;;2.53;1.10;;;;;;;13.22;67.43;97681.06;5143627;27;41445;-77
2021/03/11 11:40:00;;;;;;;1.10;1.00;;;;;;;13.32;66.78;97627.03;5109212;28;42419;-78
2021/03/11 11:42:27;;;;;;;1.03;1.00;;;;;;;13.74;65.53;97665.56;5092062;28;41388;-78
2021/03/11 11:44:54;;;;;;;1.77;1.10;;;;;;;13.68;65.01;97631.56;5109651;28;39055;-77
2021/03/11 11:47:21;;;;;;;1.07;0.97;;;;;;;13.73;64.27;97631.94;5092682;28;42795;-78